createdAt,value
2017-09-12T00:01:49.359Z,992.51
2017-09-12T00:06:45.509Z,992.47
2017-09-12T00:11:41.472Z,992.46
2017-09-12T00:16:37.294Z,992.42
2017-09-12T00:21:33.442Z,992.44
2017-09-12T00:26:29.312Z,992.42
2017-09-12T00:31:26.164Z,992.54
2017-09-12T00:36:22.871Z,992.55
2017-09-12T00:41:18.345Z,992.60
2017-09-12T00:46:15.170Z,992.64
2017-09-12T00:51:10.755Z,992.62
2017-09-12T00:56:06.403Z,992.77
2017-09-12T01:01:03.551Z,992.75
2017-09-12T01:05:58.960Z,992.68
2017-09-12T01:10:55.364Z,992.80
2017-09-12T01:15:51.055Z,992.80
2017-09-12T01:20:47.328Z,992.97
2017-09-12T01:25:42.870Z,993.04
2017-09-12T01:30:38.809Z,992.89
2017-09-12T01:35:35.777Z,992.97
2017-09-12T01:40:32.731Z,992.94
2017-09-12T01:45:28.296Z,993.06
2017-09-12T01:50:24.213Z,993.13
2017-09-12T01:55:21.344Z,993.14
2017-09-12T02:00:16.863Z,993.05
2017-09-12T02:05:12.546Z,993.19
2017-09-12T02:10:08.108Z,993.23
2017-09-12T02:15:05.015Z,993.14
2017-09-12T02:20:00.875Z,993.18
2017-09-12T02:24:56.776Z,993.18
2017-09-12T02:29:52.709Z,993.27
2017-09-12T02:34:48.578Z,993.26
2017-09-12T02:39:45.333Z,993.16
2017-09-12T02:44:41.124Z,993.16
2017-09-12T02:49:37.640Z,993.22
2017-09-12T02:54:33.562Z,993.32
2017-09-12T02:59:29.315Z,993.20
2017-09-12T03:04:25.455Z,993.23
2017-09-12T03:09:22.151Z,993.27
2017-09-12T03:14:17.908Z,993.18
2017-09-12T03:19:13.816Z,993.31
2017-09-12T03:24:10.041Z,993.27
2017-09-12T03:29:06.792Z,993.48
2017-09-12T03:34:02.473Z,993.41
2017-09-12T03:38:58.227Z,993.61
2017-09-12T03:43:54.116Z,993.51
2017-09-12T03:48:50.008Z,993.56
2017-09-12T03:53:45.699Z,993.51
2017-09-12T03:58:41.688Z,993.74
2017-09-12T04:03:38.472Z,993.79
2017-09-12T04:08:35.099Z,993.74
2017-09-12T04:13:30.530Z,993.79
2017-09-12T04:18:27.946Z,993.92
2017-09-12T04:23:25.136Z,993.97
2017-09-12T04:28:21.535Z,993.97
2017-09-12T04:33:18.448Z,994.00
2017-09-12T04:38:15.174Z,994.08
2017-09-12T04:43:11.246Z,994.06
2017-09-12T04:48:07.081Z,994.03
2017-09-12T04:53:04.067Z,994.04
2017-09-12T04:57:59.579Z,994.17
2017-09-12T05:02:56.509Z,994.27
2017-09-12T05:07:52.386Z,994.44
2017-09-12T05:12:48.575Z,994.51
2017-09-12T05:17:45.875Z,994.51
2017-09-12T05:22:42.559Z,994.59
2017-09-12T05:27:38.068Z,994.72
2017-09-12T05:32:35.242Z,994.87
2017-09-12T05:37:32.192Z,994.86
2017-09-12T05:42:27.334Z,994.98
2017-09-12T05:47:23.755Z,994.99
2017-09-12T05:52:19.610Z,994.97
2017-09-12T05:57:16.350Z,995.16
2017-09-12T06:02:13.275Z,995.24
2017-09-12T06:07:08.865Z,995.25
2017-09-12T06:12:04.760Z,995.24
2017-09-12T06:17:00.879Z,995.34
2017-09-12T06:21:57.439Z,995.48
2017-09-12T06:26:54.418Z,995.41
2017-09-12T06:31:49.988Z,995.42
2017-09-12T06:36:45.925Z,995.53
2017-09-12T06:41:42.811Z,995.66
2017-09-12T06:46:38.350Z,995.69
2017-09-12T06:51:34.633Z,995.83
2017-09-12T06:56:30.593Z,995.82
2017-09-12T07:01:26.536Z,995.88
2017-09-12T07:06:22.476Z,995.90
2017-09-12T07:11:18.510Z,995.94
2017-09-12T07:16:14.332Z,996.01
2017-09-12T07:21:10.113Z,996.01
2017-09-12T07:26:06.818Z,996.05
2017-09-12T07:31:03.756Z,996.17
2017-09-12T07:35:59.457Z,996.26
2017-09-12T07:40:56.324Z,996.41
2017-09-12T07:45:52.412Z,996.47
2017-09-12T07:50:49.376Z,996.52
2017-09-12T07:55:46.884Z,996.62
2017-09-12T08:00:42.195Z,996.76
2017-09-12T08:05:38.271Z,996.73
2017-09-12T08:10:34.457Z,996.87
2017-09-12T08:15:30.344Z,996.95
2017-09-12T08:20:27.430Z,997.05
2017-09-12T08:25:23.967Z,997.07
2017-09-12T08:30:20.896Z,997.21
2017-09-12T08:35:17.504Z,997.25
2017-09-12T08:40:14.045Z,997.32
2017-09-12T08:45:09.444Z,997.39
2017-09-12T08:50:06.581Z,997.44
2017-09-12T08:55:02.631Z,997.37
2017-09-12T08:59:58.481Z,997.46
2017-09-12T09:04:54.083Z,997.29
2017-09-12T09:09:50.637Z,997.48
2017-09-12T09:14:48.283Z,997.47
2017-09-12T09:19:44.641Z,997.49
2017-09-12T09:24:40.933Z,997.67
2017-09-12T09:29:36.809Z,997.69
2017-09-12T09:34:33.830Z,997.55
2017-09-12T09:39:29.534Z,997.52
2017-09-12T09:44:26.802Z,997.54
2017-09-12T09:49:22.834Z,997.59
2017-09-12T09:54:19.005Z,997.66
2017-09-12T09:59:15.032Z,997.70
2017-09-12T10:04:10.879Z,997.70
2017-09-12T10:09:08.069Z,997.74
2017-09-12T10:14:03.751Z,997.78
2017-09-12T10:18:59.822Z,997.79
2017-09-12T10:23:56.939Z,997.90
2017-09-12T10:28:52.430Z,997.88
2017-09-12T10:33:48.186Z,997.93
2017-09-12T10:38:46.131Z,998.04
2017-09-12T10:43:42.862Z,998.06
2017-09-12T10:48:38.772Z,998.12
2017-09-12T10:53:36.044Z,998.02
2017-09-12T10:58:32.259Z,998.12
2017-09-12T11:03:28.436Z,998.06
2017-09-12T11:08:23.421Z,998.33
2017-09-12T11:13:19.443Z,998.13
2017-09-12T11:18:16.585Z,998.25
2017-09-12T11:23:14.435Z,998.36
2017-09-12T11:28:12.477Z,998.25
2017-09-12T11:33:08.844Z,998.12
2017-09-12T11:38:06.031Z,998.21
2017-09-12T11:43:01.080Z,998.29
2017-09-12T11:47:56.525Z,998.31
2017-09-12T11:52:52.959Z,998.30
2017-09-12T11:57:49.487Z,998.42
2017-09-12T12:02:44.587Z,998.46
2017-09-12T12:07:40.835Z,998.57
2017-09-12T12:12:39.234Z,998.46
2017-09-12T12:17:33.315Z,998.59
2017-09-12T12:22:29.313Z,998.55
2017-09-12T12:27:24.851Z,998.60
2017-09-12T12:32:20.813Z,998.56
2017-09-12T12:37:17.448Z,998.42
2017-09-12T12:42:12.787Z,998.60
2017-09-12T12:47:08.451Z,998.59
2017-09-12T12:52:04.429Z,998.54
2017-09-12T12:57:00.266Z,998.73
2017-09-12T13:01:57.043Z,998.71
2017-09-12T13:06:52.031Z,998.73
2017-09-12T13:11:48.242Z,998.84
2017-09-12T13:16:45.504Z,998.87
2017-09-12T13:21:41.090Z,999.06
2017-09-12T13:26:37.222Z,999.10
2017-09-12T13:31:33.347Z,999.06
2017-09-12T13:36:28.965Z,999.14
2017-09-12T13:41:24.456Z,999.19
2017-09-12T13:46:19.800Z,999.59
2017-09-12T13:51:16.443Z,999.80
2017-09-12T13:56:11.826Z,999.74
2017-09-12T14:01:08.269Z,999.58
2017-09-12T14:06:04.128Z,999.67
2017-09-12T14:10:59.991Z,999.72
2017-09-12T14:15:56.702Z,999.76
2017-09-12T14:20:52.767Z,999.69
2017-09-12T14:25:48.395Z,999.78
2017-09-12T14:30:44.454Z,999.85
2017-09-12T14:35:40.231Z,999.99
2017-09-12T14:40:36.129Z,999.91
2017-09-12T14:45:31.737Z,999.94
2017-09-12T14:50:29.063Z,999.88
2017-09-12T14:55:25.858Z,999.92
2017-09-12T15:00:21.717Z,1000.05
2017-09-12T15:05:17.559Z,999.99
2017-09-12T15:10:14.449Z,1000.13
2017-09-12T15:15:11.076Z,1000.12
2017-09-12T15:20:08.258Z,1000.21
2017-09-12T15:25:03.831Z,1000.26
2017-09-12T15:29:59.351Z,1000.57
2017-09-12T15:34:54.517Z,1000.56
2017-09-12T15:39:49.631Z,1000.41
2017-09-12T15:44:46.940Z,1000.45
2017-09-12T15:49:42.923Z,1000.44
2017-09-12T15:54:40.811Z,1000.39
2017-09-12T15:59:36.380Z,1000.43
2017-09-12T16:04:32.075Z,1000.46
2017-09-12T16:09:27.653Z,1000.69
2017-09-12T16:14:23.426Z,1000.64
2017-09-12T16:19:19.330Z,1000.61
2017-09-12T16:24:15.360Z,1000.64
2017-09-12T16:29:12.218Z,1000.71
2017-09-12T16:34:08.502Z,1000.65
2017-09-12T16:39:05.360Z,1000.65
2017-09-12T16:44:01.026Z,1000.68
2017-09-12T16:48:56.992Z,1000.61
2017-09-12T16:53:52.817Z,1000.65
2017-09-12T16:58:48.644Z,1000.69
2017-09-12T17:03:44.368Z,1000.77
2017-09-12T17:08:40.312Z,1000.75
2017-09-12T17:13:36.281Z,1000.72
2017-09-12T17:18:31.897Z,1000.73
2017-09-12T17:23:28.038Z,1000.65
2017-09-12T17:28:25.055Z,1000.64
2017-09-12T17:33:20.960Z,1000.82
2017-09-12T17:38:16.798Z,1000.81
2017-09-12T17:43:12.661Z,1000.80
2017-09-12T17:48:09.477Z,1000.76
2017-09-12T17:53:04.741Z,1000.91
2017-09-12T17:58:00.861Z,1000.93
2017-09-12T18:02:56.523Z,1000.96
2017-09-12T18:07:52.002Z,1000.95
2017-09-12T18:12:47.647Z,1001.07
2017-09-12T18:17:43.717Z,1001.04
2017-09-12T18:22:40.436Z,1001.13
2017-09-12T18:27:36.943Z,1001.27
2017-09-12T18:32:32.571Z,1001.29
2017-09-12T18:37:28.658Z,1001.22
2017-09-12T18:42:25.494Z,1001.24
2017-09-12T18:47:21.988Z,1001.43
2017-09-12T18:52:18.062Z,1001.53
2017-09-12T18:57:13.456Z,1001.50
2017-09-12T19:02:09.335Z,1001.62
2017-09-12T19:07:08.287Z,1001.59
2017-09-12T19:12:03.709Z,1001.71
2017-09-12T19:16:59.515Z,1001.67
2017-09-12T19:21:55.490Z,1001.51
2017-09-12T19:26:52.000Z,1001.55
2017-09-12T19:31:47.909Z,1001.62
2017-09-12T19:36:44.062Z,1001.56
2017-09-12T19:41:39.782Z,1001.61
2017-09-12T19:46:35.497Z,1001.66
2017-09-12T19:51:31.281Z,1001.60
2017-09-12T19:56:27.266Z,1001.50
2017-09-12T20:01:22.866Z,1001.54
2017-09-12T20:06:19.626Z,1001.51
2017-09-12T20:11:15.138Z,1001.53
2017-09-12T20:16:11.610Z,1001.63
2017-09-12T20:21:08.730Z,1001.52
2017-09-12T20:26:05.213Z,1001.55
2017-09-12T20:31:01.071Z,1001.56
2017-09-12T20:35:57.378Z,1001.60
2017-09-12T20:40:53.252Z,1001.53
2017-09-12T20:45:50.168Z,1001.59
2017-09-12T20:50:45.717Z,1001.55
2017-09-12T20:55:41.501Z,1001.51
2017-09-12T21:00:37.954Z,1001.53
2017-09-12T21:05:34.245Z,1001.57
2017-09-12T21:10:31.155Z,1001.45
2017-09-12T21:15:26.449Z,1001.64
2017-09-12T21:20:23.210Z,1001.62
2017-09-12T21:25:19.615Z,1001.49
2017-09-12T21:30:15.545Z,1001.46
2017-09-12T21:35:12.607Z,1001.26
2017-09-12T21:40:09.078Z,1001.36
2017-09-12T21:45:05.241Z,1001.34
2017-09-12T21:50:00.771Z,1001.23
2017-09-12T21:54:58.419Z,1001.21
2017-09-12T21:59:54.032Z,1001.13
2017-09-12T22:04:49.978Z,1001.08
2017-09-12T22:09:47.968Z,1001.13
2017-09-12T22:14:43.295Z,1000.99
2017-09-12T22:19:39.328Z,1000.83
2017-09-12T22:24:34.856Z,1000.78
2017-09-12T22:29:31.045Z,1000.59
2017-09-12T22:34:27.953Z,1000.70
2017-09-12T22:39:23.565Z,1000.69
2017-09-12T22:44:19.180Z,1000.67
2017-09-12T22:49:15.365Z,1000.63
2017-09-12T22:54:11.015Z,1000.56
2017-09-12T22:59:07.017Z,1000.41
2017-09-12T23:04:02.619Z,1000.14
2017-09-12T23:08:59.560Z,1000.04
2017-09-12T23:13:56.089Z,999.93
2017-09-12T23:18:52.927Z,999.65
2017-09-12T23:23:49.570Z,999.50
2017-09-12T23:28:45.815Z,999.39
2017-09-12T23:33:41.302Z,999.23
2017-09-12T23:38:37.214Z,999.19
2017-09-12T23:43:33.097Z,999.01
2017-09-12T23:48:29.846Z,999.03
2017-09-12T23:53:25.350Z,998.91
2017-09-12T23:58:21.214Z,998.88
